Messwerte Concordia

Temperatur

Temperatur
°C
1617966000 6.00 6.00 4
1617969600 7.00 7.00 4
1617973200 8.00 8.00 6
1617976800 9.00 9.00 9
1617980400 10.00 10.00 13
1617984000 11.00 11.00 14
1617987600 12.00 12.00 17
1617991200 13.00 13.00 18
1617994800 14.00 14.00 18
1617998400 15.00 15.00 18
1618002000 16.00 16.00 14
1618005600 17.00 17.00 11
1618009200 18.00 18.00
1618012800 19.00 19.00 8
1618016400 20.00 20.00 8
1618020000 21.00 21.00 8
1618023600 22.00 22.00 7
1618027200 23.00 23.00 6
1618030800 0.00 0.00 6
1618034400 1.00 1.00 5
1618038000 2.00 2.00 5
1618041600 3.00 3.00 6
1618045200 4.00 4.00 7
1618048800 5.00 5.00 7

Aktuellste Messwerte

Wettercharakter
Wetter: bedeckt
Temperatur
7 °C
Feuchtigkeit
80 %
Wind
25 km/hWindrichtung: Nordwest
Böen
40 km/h
Luftdruck
1010 hPa
Messzeit: 10. April 2021, 6.00Datenquelle: METAR

Weitere Messstationen in der Nähe

Messstation Temperatur Entfernung
Hebron 7 °C 67 km
Salina 7 °C 84 km
Fort Riley 7 °C 91 km
Manhattan 8 °C 95 km
Beatrice Municipal 7 °C 113 km
Russell 3 °C 125 km
Hastings 4 °C 134 km

Wind

Windrichtung Böen Mittelwind
° km/h km/h
1617966000 6.00 5.00 - 6.00 240° 5
1617969600 7.00 6.00 - 7.00 0
1617973200 8.00 7.00 - 8.00 5
1617976800 9.00 8.00 - 9.00 20° 5
1617980400 10.00 9.00 - 10.00
1617984000 11.00 10.00 - 11.00 340° 15
1617987600 12.00 11.00 - 12.00 350° 20
1617991200 13.00 12.00 - 13.00 350° 20
1617994800 14.00 13.00 - 14.00 340° 25
1617998400 15.00 14.00 - 15.00 320° 45 30
1618002000 16.00 15.00 - 16.00 310° 60 35
1618005600 17.00 16.00 - 17.00 310° 55 35
1618009200 18.00 17.00 - 18.00
1618012800 19.00 18.00 - 19.00 310° 50 30
1618016400 20.00 19.00 - 20.00 310° 25
1618020000 21.00 20.00 - 21.00 310° 20
1618023600 22.00 21.00 - 22.00 320° 35 25
1618027200 23.00 22.00 - 23.00 310° 30 25
1618030800 0.00 23.00 - 0.00 320° 45 25
1618034400 1.00 0.00 - 1.00 300° 40 20
1618038000 2.00 1.00 - 2.00 310° 35 20
1618041600 3.00 2.00 - 3.00 330° 45 30
1618045200 4.00 3.00 - 4.00 330° 30
1618048800 5.00 4.00 - 5.00 330° 25

Ihre Wetterstation

Fehlt Ihre Wetterstation auf unserem Portal?

Schreiben Sie an network@meteonews.ch

Klima

Wann ist es am wärmsten? Wann regnet es am wenigsten? Unsere Klimadaten geben Auskunft.